Etusivu
METAR-TAF:

METAR-TAF

Lentoasemat :

Suceava, Romania

Leveyspiiri: 47-39N, Pituuspiiri: 026-15E, korkeus merenpinnasta: 351 m

Tämänhetkinen sää

Tämä raportti tehtiin 11 minuuttia sitten, kello 07.30 UTC
Tuuli 4 kn lännestä/lounaasta, vaihdellen lounaan ja lännen välillä
Lämpötila 6°C
Kosteus 28%
Ilmanpaine 1016 hPa
Näkyvyys 10 km tai enemmän
ei pilviä alle 1500 m:ssä eikä cumulonimbus-pilviä

METAR: LRSV 020730Z 25004KT 220V280 CAVOK 06/M11 Q1016

Aika: 10:41 (07:41 UTC)

Sääennuste

Tämä raportti tehtiin 2 tuntia ja 41 minuuttia sitten, kello 05.00 UTC
Ennuste voimassa 02. päivästä klo 06 UTC - 02. päivään klo 15 UTC
Tuuli 8 kn lännestä/lounaasta
Näkyvyys 10 km tai enemmän
ei pilviä alle 1500 m:ssä eikä cumulonimbus-pilviä
Tulossa
02. päivästä klo 09 UTC - 02. päivään klo 11 UTC
Tuuli 10 kn etelästä/kaakosta

TAF: LRSV 020500Z 0206/0215 25008KT CAVOK BECMG 0209/0211 16010KT

Säähavainnot ja -ennusteet yli 4000 lentoasemalta (METAR- ja TAF-raportit).

Käytössä olevat sääasemat on merkitty karttaan keltaisilla ja punaisilla pisteillä.

Aseta hiiri pisteen päälle nähdäksesi sääaseman nimen.

Klikkaa sitten nähdäksesi säähavainnot ja -ennusteet.

Kartan vaihtaminen: klikkaa mustalla rastilla varustettuja vihreitä pisteitä, niin voit zoomata sisään; viivalla varustettua vihreää pistettä, niin voit zoomata ulos tai vihreitä nuolia, niin pääset viereisille kartoille.


METAR-TAF: